createdAt,value
2018-08-19T00:02:20.099Z,10.83
2018-08-19T00:04:59.010Z,15.43
2018-08-19T00:07:28.127Z,10.57
2018-08-19T00:09:57.459Z,15.30
2018-08-19T00:12:34.059Z,13.10
2018-08-19T00:15:04.556Z,12.00
2018-08-19T00:17:33.636Z,13.40
2018-08-19T00:20:04.395Z,10.80
2018-08-19T00:22:33.779Z,10.67
2018-08-19T00:25:02.909Z,12.80
2018-08-19T00:27:32.591Z,8.83
2018-08-19T00:30:01.691Z,10.13
2018-08-19T00:32:31.045Z,12.27
2018-08-19T00:35:00.376Z,14.73
2018-08-19T00:37:29.708Z,16.03
2018-08-19T00:40:04.637Z,9.30
2018-08-19T00:42:34.317Z,15.33
2018-08-19T00:45:03.652Z,13.80
2018-08-19T00:47:32.970Z,9.80
2018-08-19T00:50:03.565Z,12.40
2018-08-19T00:52:33.098Z,11.60
2018-08-19T00:55:02.469Z,11.77
2018-08-19T00:57:31.618Z,8.10
2018-08-19T01:00:00.700Z,16.10
2018-08-19T01:02:30.037Z,13.00
2018-08-19T01:04:59.392Z,13.53
2018-08-19T01:07:28.729Z,9.93
2018-08-19T01:09:58.288Z,8.63
2018-08-19T01:12:27.764Z,12.33
2018-08-19T01:14:57.120Z,7.78
2018-08-19T01:17:30.758Z,10.30
2018-08-19T01:20:07.310Z,9.23
2018-08-19T01:22:37.165Z,7.33
2018-08-19T01:25:06.814Z,8.47
2018-08-19T01:27:37.191Z,11.03
2018-08-19T01:30:08.848Z,12.10
2018-08-19T01:32:38.192Z,7.40
2018-08-19T01:35:07.504Z,7.67
2018-08-19T01:37:37.292Z,6.47
2018-08-19T01:40:09.201Z,9.60
2018-08-19T01:42:38.733Z,5.30
2018-08-19T01:45:09.360Z,6.13
2018-08-19T01:47:38.933Z,6.87
2018-08-19T01:50:09.533Z,8.50
2018-08-19T01:52:39.158Z,6.93
2018-08-19T01:55:09.172Z,5.77
2018-08-19T01:57:43.892Z,9.43
2018-08-19T02:00:13.927Z,6.40
2018-08-19T02:02:57.626Z,8.50
2018-08-19T02:05:27.535Z,6.17
2018-08-19T02:08:00.220Z,11.23
2018-08-19T02:10:31.250Z,6.33
2018-08-19T02:13:01.175Z,5.85
2018-08-19T02:15:31.497Z,7.28
2018-08-19T02:18:04.060Z,5.87
2018-08-19T02:20:42.020Z,5.97
2018-08-19T02:23:12.163Z,6.97
2018-08-19T02:25:46.541Z,6.43
2018-08-19T02:28:19.205Z,8.63
2018-08-19T02:30:53.707Z,5.83
2018-08-19T02:33:23.956Z,8.00
2018-08-19T02:36:00.422Z,6.53
2018-08-19T02:38:29.732Z,4.13
2018-08-19T02:40:59.062Z,6.40
2018-08-19T02:43:28.666Z,7.43
2018-08-19T02:45:57.959Z,8.37
2018-08-19T02:48:37.058Z,9.08
2018-08-19T02:51:06.340Z,8.43
2018-08-19T02:53:35.423Z,5.70
2018-08-19T02:56:04.757Z,5.80
2018-08-19T02:58:34.094Z,6.00
2018-08-19T03:01:03.424Z,5.63
2018-08-19T03:03:32.977Z,4.50
2018-08-19T03:06:03.181Z,3.90
2018-08-19T03:08:32.607Z,6.85
2018-08-19T03:11:01.935Z,7.00
2018-08-19T03:13:31.242Z,6.80
2018-08-19T03:16:00.570Z,7.70
2018-08-19T03:18:30.096Z,4.90
2018-08-19T03:20:59.644Z,5.30
2018-08-19T03:23:29.110Z,6.63
2018-08-19T03:25:58.372Z,5.75
2018-08-19T03:28:27.668Z,4.30
2018-08-19T03:31:02.007Z,4.27
2018-08-19T03:33:31.760Z,5.47
2018-08-19T03:36:00.900Z,5.00
2018-08-19T03:38:30.010Z,5.90
2018-08-19T03:40:59.719Z,11.60
2018-08-19T03:43:29.106Z,4.90
2018-08-19T03:46:00.542Z,3.72
2018-08-19T03:48:29.754Z,3.77
2018-08-19T03:50:58.844Z,6.97
2018-08-19T03:53:28.184Z,4.40
2018-08-19T03:55:57.723Z,4.03
2018-08-19T03:58:27.152Z,5.30
2018-08-19T04:00:56.502Z,6.40
2018-08-19T04:03:26.602Z,9.70
2018-08-19T04:06:00.192Z,4.05
2018-08-19T04:08:39.878Z,4.95
2018-08-19T04:11:09.235Z,4.33
2018-08-19T04:13:39.611Z,3.60
2018-08-19T04:16:10.122Z,10.10
2018-08-19T04:18:44.649Z,4.37
2018-08-19T04:21:16.088Z,4.40
2018-08-19T04:23:47.238Z,4.77
2018-08-19T04:26:16.338Z,3.60
2018-08-19T04:28:46.343Z,5.37
2018-08-19T04:31:21.331Z,6.40
2018-08-19T04:33:50.656Z,4.10
2018-08-19T04:36:21.289Z,4.23
2018-08-19T04:38:51.120Z,5.43
2018-08-19T04:41:20.440Z,4.10
2018-08-19T04:43:49.814Z,6.13
2018-08-19T04:46:19.437Z,3.63
2018-08-19T04:48:49.543Z,4.00
2018-08-19T04:51:19.133Z,4.22
2018-08-19T04:53:48.905Z,4.83
2018-08-19T04:56:19.359Z,3.40
2018-08-19T04:58:49.398Z,3.87
2018-08-19T05:01:20.113Z,3.30
2018-08-19T05:03:49.605Z,3.10
2018-08-19T05:06:19.958Z,5.53
2018-08-19T05:08:49.950Z,4.25
2018-08-19T05:11:20.302Z,3.98
2018-08-19T05:13:50.092Z,3.67
2018-08-19T05:16:20.240Z,3.03
2018-08-19T05:19:02.989Z,3.30
2018-08-19T05:21:32.605Z,5.10
2018-08-19T05:24:01.899Z,8.27
2018-08-19T05:26:31.248Z,6.17
2018-08-19T05:29:11.451Z,3.43
2018-08-19T05:31:47.178Z,4.80
2018-08-19T05:34:21.848Z,3.50
2018-08-19T05:36:51.508Z,3.03
2018-08-19T05:39:21.197Z,5.37
2018-08-19T05:41:59.413Z,5.03
2018-08-19T05:44:30.003Z,3.70
2018-08-19T05:47:04.834Z,4.80
2018-08-19T05:49:35.587Z,4.10
2018-08-19T05:52:10.392Z,4.93
2018-08-19T05:54:47.852Z,3.63
2018-08-19T05:57:17.430Z,3.80
2018-08-19T05:59:49.769Z,3.40
2018-08-19T06:02:54.299Z,3.60
2018-08-19T06:05:23.619Z,4.33
2018-08-19T06:07:58.161Z,5.83
2018-08-19T06:10:27.699Z,3.52
2018-08-19T06:12:57.588Z,3.07
2018-08-19T06:15:26.907Z,3.43
2018-08-19T06:17:56.242Z,3.50
2018-08-19T06:20:27.881Z,5.03
2018-08-19T06:22:57.172Z,3.50
2018-08-19T06:25:26.538Z,8.80
2018-08-19T06:27:56.910Z,3.90
2018-08-19T06:30:26.010Z,3.50
2018-08-19T06:32:55.114Z,4.03
2018-08-19T06:35:24.440Z,3.40
2018-08-19T06:37:53.755Z,3.33
2018-08-19T06:40:23.700Z,3.43
2018-08-19T06:42:56.569Z,3.00
2018-08-19T06:45:25.917Z,6.67
2018-08-19T06:47:55.235Z,3.30
2018-08-19T06:50:28.969Z,7.23
2018-08-19T06:52:58.554Z,2.70
2018-08-19T06:55:28.474Z,16.00
2018-08-19T06:57:58.435Z,8.98
2018-08-19T07:00:29.481Z,3.47
2018-08-19T07:03:00.937Z,5.20
2018-08-19T07:05:30.549Z,3.10
2018-08-19T07:07:59.877Z,8.47
2018-08-19T07:10:34.766Z,5.53
2018-08-19T07:13:06.129Z,4.00
2018-08-19T07:15:37.241Z,3.77
2018-08-19T07:18:07.491Z,7.90
2018-08-19T07:20:36.834Z,4.40
2018-08-19T07:23:06.490Z,8.70
2018-08-19T07:25:38.952Z,8.80
2018-08-19T07:28:09.807Z,12.20
2018-08-19T07:30:39.848Z,8.70
2018-08-19T07:33:09.435Z,11.40
2018-08-19T07:35:38.973Z,7.57
2018-08-19T07:38:08.290Z,14.00
2018-08-19T07:40:37.647Z,19.43
2018-08-19T07:43:07.440Z,16.27
2018-08-19T07:45:36.997Z,10.13
2018-08-19T07:48:06.496Z,15.70
2018-08-19T07:50:36.161Z,12.30
2018-08-19T07:53:05.795Z,8.60
2018-08-19T07:55:35.344Z,14.87
2018-08-19T07:58:09.810Z,9.50
2018-08-19T08:00:42.071Z,17.10
2018-08-19T08:03:11.623Z,9.27
2018-08-19T08:05:46.895Z,10.10
2018-08-19T08:08:16.240Z,15.07
2018-08-19T08:10:45.819Z,8.37
2018-08-19T08:13:15.345Z,14.53
2018-08-19T08:15:49.482Z,10.18
2018-08-19T08:18:18.602Z,17.93
2018-08-19T08:20:47.978Z,11.93
2018-08-19T08:23:21.464Z,8.33
2018-08-19T08:25:50.783Z,15.87
2018-08-19T08:28:20.165Z,11.12
2018-08-19T08:30:49.716Z,12.33
2018-08-19T08:33:19.317Z,10.13
2018-08-19T08:35:55.012Z,11.23
2018-08-19T08:38:24.567Z,20.13
2018-08-19T08:40:54.370Z,10.13
2018-08-19T08:43:23.716Z,14.90
2018-08-19T08:45:55.158Z,9.00
2018-08-19T08:48:24.248Z,10.13
2018-08-19T08:50:53.568Z,6.63
2018-08-19T08:53:25.553Z,16.53
2018-08-19T08:55:54.589Z,11.00
2018-08-19T08:58:23.689Z,7.13
2018-08-19T09:00:52.785Z,17.30
2018-08-19T09:03:21.993Z,7.00
2018-08-19T09:05:51.204Z,15.93
2018-08-19T09:08:20.337Z,14.23
2018-08-19T09:10:49.643Z,11.17
2018-08-19T09:13:18.986Z,10.57
2018-08-19T09:15:48.303Z,13.80
2018-08-19T09:18:17.642Z,7.43
2018-08-19T09:20:46.732Z,12.00
2018-08-19T09:23:16.257Z,15.23
2018-08-19T09:25:45.642Z,27.07
2018-08-19T09:28:14.729Z,37.40
2018-08-19T09:30:44.669Z,39.90
2018-08-19T09:33:15.088Z,26.73
2018-08-19T09:35:45.019Z,39.73
2018-08-19T09:38:17.361Z,34.27
2018-08-19T09:40:47.313Z,34.23
2018-08-19T09:43:18.712Z,36.20
2018-08-19T09:45:48.651Z,34.43
2018-08-19T09:48:18.356Z,34.53
2018-08-19T09:50:47.457Z,31.53
2018-08-19T09:53:16.797Z,39.83
2018-08-19T09:55:51.538Z,34.23
2018-08-19T09:58:22.022Z,29.10
2018-08-19T10:00:56.608Z,33.97
2018-08-19T10:03:25.929Z,27.07
2018-08-19T10:05:55.503Z,34.23
2018-08-19T10:08:24.826Z,33.77
2018-08-19T10:10:54.644Z,21.83
2018-08-19T10:13:23.981Z,34.53
2018-08-19T10:15:53.532Z,30.97
2018-08-19T10:18:23.087Z,21.87
2018-08-19T10:20:52.661Z,29.53
2018-08-19T10:23:22.791Z,33.17
2018-08-19T10:25:52.332Z,27.03
2018-08-19T10:28:21.679Z,28.87
2018-08-19T10:30:55.344Z,34.10
2018-08-19T10:33:24.440Z,25.57
2018-08-19T10:35:54.137Z,19.27
2018-08-19T10:38:23.237Z,30.63
2018-08-19T10:41:07.996Z,20.37
2018-08-19T10:43:37.560Z,25.45
2018-08-19T10:46:06.955Z,33.57
2018-08-19T10:48:36.049Z,14.00
2018-08-19T10:51:05.152Z,21.70
2018-08-19T10:53:34.361Z,23.87
2018-08-19T10:56:03.907Z,22.17
2018-08-19T10:58:33.666Z,16.63
2018-08-19T11:01:03.350Z,21.10
2018-08-19T11:03:32.659Z,21.93
2018-08-19T11:06:01.993Z,14.53
2018-08-19T11:08:31.548Z,14.20
2018-08-19T11:11:01.261Z,11.57
2018-08-19T11:13:30.641Z,14.73
2018-08-19T11:15:59.989Z,11.60
2018-08-19T11:18:42.106Z,20.50
2018-08-19T11:21:17.598Z,13.40
2018-08-19T11:23:47.580Z,11.70
2018-08-19T11:26:16.890Z,10.27
2018-08-19T11:29:00.959Z,10.93
2018-08-19T11:31:30.360Z,11.90
2018-08-19T11:34:02.492Z,16.15
2018-08-19T11:36:38.090Z,11.40
2018-08-19T11:39:11.339Z,10.30
2018-08-19T11:41:40.907Z,9.43
2018-08-19T11:44:12.706Z,15.40
2018-08-19T11:46:42.274Z,14.73
2018-08-19T11:49:13.149Z,17.10
2018-08-19T11:51:45.972Z,13.77
2018-08-19T11:54:16.178Z,10.37
2018-08-19T11:56:46.412Z,14.40
2018-08-19T11:59:15.740Z,12.43
2018-08-19T12:01:45.082Z,18.17
2018-08-19T12:04:14.405Z,11.37
2018-08-19T12:06:43.719Z,9.90
2018-08-19T12:09:12.844Z,10.80
2018-08-19T12:11:42.514Z,13.48
2018-08-19T12:14:13.969Z,12.50
2018-08-19T12:16:50.700Z,15.07
2018-08-19T12:19:21.435Z,15.93
2018-08-19T12:22:05.386Z,9.90
2018-08-19T12:24:40.893Z,13.60
2018-08-19T12:27:11.816Z,14.15
2018-08-19T12:29:42.222Z,9.57
2018-08-19T12:32:17.632Z,16.17
2018-08-19T12:34:54.656Z,13.60
2018-08-19T12:37:24.986Z,12.97
2018-08-19T12:39:55.380Z,15.07
2018-08-19T12:42:25.122Z,15.35
2018-08-19T12:45:00.283Z,19.13
2018-08-19T12:47:29.483Z,12.23
2018-08-19T12:50:00.273Z,15.33
2018-08-19T12:52:30.929Z,14.00
2018-08-19T12:55:05.353Z,14.40
2018-08-19T12:57:35.524Z,26.27
2018-08-19T13:00:12.527Z,11.80
2018-08-19T13:02:43.471Z,9.40
2018-08-19T13:05:13.698Z,12.73
2018-08-19T13:07:43.057Z,15.40
2018-08-19T13:10:12.368Z,9.53
2018-08-19T13:12:47.007Z,8.23
2018-08-19T13:15:16.572Z,10.80
2018-08-19T13:17:46.117Z,13.93
2018-08-19T13:20:15.947Z,10.60
2018-08-19T13:22:51.461Z,11.53
2018-08-19T13:25:22.861Z,11.43
2018-08-19T13:27:52.235Z,8.47
2018-08-19T13:30:22.363Z,7.03
2018-08-19T13:32:51.996Z,11.40
2018-08-19T13:35:21.167Z,11.80
2018-08-19T13:37:50.920Z,14.00
2018-08-19T13:40:20.043Z,12.83
2018-08-19T13:42:49.152Z,21.30
2018-08-19T13:45:19.945Z,13.83
2018-08-19T13:47:54.143Z,14.30
2018-08-19T13:50:23.709Z,18.50
2018-08-19T13:52:53.025Z,18.03
2018-08-19T13:55:22.123Z,14.70
2018-08-19T13:57:51.275Z,17.97
2018-08-19T14:00:22.486Z,18.03
2018-08-19T14:02:51.961Z,18.50
2018-08-19T14:05:21.356Z,21.47
2018-08-19T14:07:50.931Z,18.03
2018-08-19T14:10:20.453Z,17.57
2018-08-19T14:12:49.768Z,25.07
2018-08-19T14:15:18.929Z,26.43
2018-08-19T14:17:48.280Z,19.92
2018-08-19T14:20:17.840Z,20.50
2018-08-19T14:22:47.276Z,30.93
2018-08-19T14:25:16.644Z,38.47
2018-08-19T14:27:45.964Z,18.20
2018-08-19T14:30:16.855Z,19.07
2018-08-19T14:32:47.174Z,16.50
2018-08-19T14:35:16.285Z,21.20
2018-08-19T14:37:45.381Z,14.77
2018-08-19T14:40:16.620Z,18.20
2018-08-19T14:42:46.398Z,19.82
2018-08-19T14:45:15.820Z,16.03
2018-08-19T14:47:44.909Z,21.77
2018-08-19T14:50:15.355Z,15.03
2018-08-19T14:52:44.481Z,17.40
2018-08-19T14:55:13.596Z,16.75
2018-08-19T14:57:43.135Z,15.30
2018-08-19T15:00:14.886Z,12.67
2018-08-19T15:02:44.509Z,14.07
2018-08-19T15:05:16.848Z,15.07
2018-08-19T15:07:46.794Z,15.43
2018-08-19T15:10:18.042Z,11.60
2018-08-19T15:12:47.400Z,17.77
2018-08-19T15:15:16.974Z,14.07
2018-08-19T15:17:50.801Z,12.23
2018-08-19T15:20:36.846Z,11.97
2018-08-19T15:23:16.061Z,14.17
2018-08-19T15:25:45.990Z,16.57
2018-08-19T15:28:16.205Z,11.20
2018-08-19T15:30:45.531Z,13.53
2018-08-19T15:33:15.660Z,11.50
2018-08-19T15:35:44.943Z,17.17
2018-08-19T15:38:14.514Z,24.03
2018-08-19T15:40:46.749Z,24.37
2018-08-19T15:43:16.291Z,26.35
2018-08-19T15:45:46.223Z,23.13
2018-08-19T15:48:15.555Z,26.30
2018-08-19T15:50:44.895Z,22.47
2018-08-19T15:53:16.859Z,23.87
2018-08-19T15:55:46.417Z,19.30
2018-08-19T15:58:16.014Z,22.95
2018-08-19T16:00:45.593Z,20.30
2018-08-19T16:03:15.150Z,23.47
2018-08-19T16:05:44.471Z,16.67
2018-08-19T16:08:13.811Z,28.67
2018-08-19T16:10:43.384Z,22.37
2018-08-19T16:13:12.926Z,17.27
2018-08-19T16:15:42.276Z,27.33
2018-08-19T16:18:11.368Z,19.42
2018-08-19T16:20:43.630Z,34.80
2018-08-19T16:23:12.994Z,22.50
2018-08-19T16:25:42.549Z,24.13
2018-08-19T16:28:11.868Z,24.83
2018-08-19T16:30:40.973Z,23.43
2018-08-19T16:33:10.079Z,21.30
2018-08-19T16:35:39.420Z,16.00
2018-08-19T16:38:08.759Z,15.05
2018-08-19T16:40:38.108Z,16.50
2018-08-19T16:43:07.688Z,24.17
2018-08-19T16:45:37.733Z,19.05
2018-08-19T16:48:07.671Z,11.83
2018-08-19T16:50:37.955Z,17.10
2018-08-19T16:53:07.805Z,14.70
2018-08-19T16:55:38.029Z,13.95
2018-08-19T16:58:07.917Z,13.77
2018-08-19T17:00:38.173Z,19.15
2018-08-19T17:03:26.521Z,14.30
2018-08-19T17:05:56.398Z,15.73
2018-08-19T17:08:26.208Z,12.60
2018-08-19T17:10:55.591Z,19.60
2018-08-19T17:13:24.957Z,14.20
2018-08-19T17:15:54.167Z,22.13
2018-08-19T17:18:23.434Z,12.67
2018-08-19T17:20:53.225Z,13.43
2018-08-19T17:23:23.978Z,14.23
2018-08-19T17:25:53.361Z,15.83
2018-08-19T17:28:24.092Z,12.73
2018-08-19T17:30:54.649Z,15.87
2018-08-19T17:33:29.150Z,12.78
2018-08-19T17:35:58.907Z,15.77
2018-08-19T17:38:29.731Z,17.40
2018-08-19T17:40:59.339Z,14.63
2018-08-19T17:43:34.078Z,15.37
2018-08-19T17:46:08.944Z,18.00
2018-08-19T17:48:40.628Z,11.20
2018-08-19T17:51:22.840Z,18.43
2018-08-19T17:53:52.407Z,15.27
2018-08-19T17:56:21.737Z,18.20
2018-08-19T17:58:51.351Z,18.48
2018-08-19T18:01:21.244Z,12.40
2018-08-19T18:03:51.492Z,12.30
2018-08-19T18:06:21.054Z,13.53
2018-08-19T18:08:51.732Z,11.10
2018-08-19T18:11:23.116Z,15.63
2018-08-19T18:13:52.461Z,15.70
2018-08-19T18:16:21.793Z,15.30
2018-08-19T18:18:51.488Z,11.87
2018-08-19T18:21:21.598Z,13.13
2018-08-19T18:23:51.453Z,11.43
2018-08-19T18:26:20.768Z,15.23
2018-08-19T18:28:50.126Z,17.80
2018-08-19T18:31:22.156Z,13.35
2018-08-19T18:33:59.425Z,11.38
2018-08-19T18:36:31.441Z,14.10
2018-08-19T18:39:01.364Z,14.73
2018-08-19T18:41:37.410Z,14.20
2018-08-19T18:44:08.261Z,12.00
2018-08-19T18:46:37.970Z,14.00
2018-08-19T18:49:11.281Z,12.10
2018-08-19T18:51:41.430Z,11.70
2018-08-19T18:54:16.721Z,10.67
2018-08-19T18:56:46.027Z,13.70
2018-08-19T18:59:15.944Z,11.53
2018-08-19T19:01:45.274Z,10.73
2018-08-19T19:04:14.603Z,10.30
2018-08-19T19:06:44.262Z,18.20
2018-08-19T19:09:13.832Z,15.10
2018-08-19T19:11:43.147Z,12.97
2018-08-19T19:14:16.816Z,20.20
2018-08-19T19:16:48.801Z,18.47
2018-08-19T19:19:18.112Z,12.85
2018-08-19T19:21:53.032Z,16.95
2018-08-19T19:24:29.540Z,19.50
2018-08-19T19:26:58.915Z,18.77
2018-08-19T19:29:28.967Z,22.35
2018-08-19T19:31:58.938Z,30.03
2018-08-19T19:34:30.038Z,24.47
2018-08-19T19:36:59.164Z,25.93
2018-08-19T19:39:28.681Z,27.30
2018-08-19T19:42:03.335Z,31.97
2018-08-19T19:44:33.677Z,26.27
2018-08-19T19:47:02.821Z,22.97
2018-08-19T19:49:32.219Z,29.00
2018-08-19T19:52:03.136Z,22.73
2018-08-19T19:54:34.270Z,35.77
2018-08-19T19:57:03.397Z,28.23
2018-08-19T19:59:33.961Z,28.20
2018-08-19T20:02:03.376Z,25.00
2018-08-19T20:04:35.004Z,28.83
2018-08-19T20:07:04.323Z,26.03
2018-08-19T20:09:34.487Z,25.23
2018-08-19T20:12:03.531Z,24.20
2018-08-19T20:14:37.252Z,29.25
2018-08-19T20:17:06.821Z,18.43
2018-08-19T20:19:36.356Z,25.93
2018-08-19T20:22:06.401Z,27.10
2018-08-19T20:24:35.736Z,18.20
2018-08-19T20:27:05.326Z,20.00
2018-08-19T20:29:34.860Z,18.43
2018-08-19T20:32:04.294Z,20.67
2018-08-19T20:34:33.645Z,26.77
2018-08-19T20:37:02.989Z,19.00
2018-08-19T20:39:32.080Z,20.67
2018-08-19T20:42:01.428Z,19.47
2018-08-19T20:44:30.802Z,21.63
2018-08-19T20:47:00.185Z,14.13
2018-08-19T20:49:29.742Z,19.55
2018-08-19T20:51:59.119Z,31.40
2018-08-19T20:54:28.474Z,18.57
2018-08-19T20:56:58.056Z,20.48
2018-08-19T20:59:33.120Z,17.97
2018-08-19T21:02:03.980Z,17.70
2018-08-19T21:04:33.367Z,16.27
2018-08-19T21:07:03.253Z,18.43
2018-08-19T21:09:34.349Z,18.10
2018-08-19T21:12:04.068Z,18.47
2018-08-19T21:14:33.486Z,13.67
2018-08-19T21:17:04.683Z,17.10
2018-08-19T21:19:35.044Z,13.37
2018-08-19T21:22:04.137Z,16.13
2018-08-19T21:24:33.629Z,15.10
2018-08-19T21:27:03.423Z,15.77
2018-08-19T21:29:33.183Z,17.30
2018-08-19T21:32:02.561Z,17.33
2018-08-19T21:34:31.920Z,14.23
2018-08-19T21:37:01.409Z,16.70
2018-08-19T21:39:30.503Z,14.90
2018-08-19T21:41:59.899Z,18.43
2018-08-19T21:44:29.244Z,11.97
2018-08-19T21:46:58.624Z,14.30
2018-08-19T21:49:28.169Z,10.50
2018-08-19T21:51:57.483Z,9.90
2018-08-19T21:54:27.003Z,12.50
2018-08-19T21:56:56.365Z,26.37
2018-08-19T21:59:25.784Z,11.33
2018-08-19T22:01:57.639Z,11.20
2018-08-19T22:04:27.360Z,8.90
2018-08-19T22:06:56.745Z,11.50
2018-08-19T22:09:28.057Z,12.20
2018-08-19T22:11:58.334Z,12.93
2018-08-19T22:14:27.838Z,16.20
2018-08-19T22:17:02.872Z,13.13
2018-08-19T22:19:32.468Z,16.53
2018-08-19T22:22:01.580Z,7.83
2018-08-19T22:24:30.913Z,8.30
2018-08-19T22:27:08.615Z,8.50
2018-08-19T22:29:37.934Z,10.10
2018-08-19T22:32:07.060Z,10.17
2018-08-19T22:34:36.466Z,14.57
2018-08-19T22:37:06.864Z,9.73
2018-08-19T22:39:36.380Z,12.03
2018-08-19T22:42:05.496Z,10.47
2018-08-19T22:44:34.925Z,6.70
2018-08-19T22:47:04.472Z,12.73
2018-08-19T22:49:33.799Z,12.63
2018-08-19T22:52:18.941Z,12.17
2018-08-19T22:54:50.258Z,10.53
2018-08-19T22:57:19.744Z,12.23
2018-08-19T22:59:49.052Z,8.97
2018-08-19T23:02:18.372Z,9.30
2018-08-19T23:04:47.926Z,9.93
2018-08-19T23:07:17.463Z,10.53
2018-08-19T23:09:46.744Z,6.70
2018-08-19T23:12:16.623Z,6.97
2018-08-19T23:14:57.422Z,9.60
2018-08-19T23:17:26.996Z,13.20
2018-08-19T23:19:56.572Z,7.37
2018-08-19T23:22:26.149Z,6.63
2018-08-19T23:24:55.467Z,7.70
2018-08-19T23:27:24.890Z,6.70
2018-08-19T23:29:54.078Z,5.27
2018-08-19T23:32:24.531Z,6.83
2018-08-19T23:34:53.768Z,9.35
2018-08-19T23:37:23.105Z,7.85
2018-08-19T23:39:52.653Z,6.43
2018-08-19T23:42:22.208Z,7.50
2018-08-19T23:44:51.692Z,6.20
2018-08-19T23:47:20.804Z,7.00
2018-08-19T23:49:49.876Z,7.10
2018-08-19T23:52:18.976Z,7.23
2018-08-19T23:54:48.305Z,6.17
2018-08-19T23:57:18.608Z,5.67
2018-08-19T23:59:48.511Z,7.80
